Time;durP1;ratioP1;P1;durP2;ratioP2;P2;SDS_P1;SDS_P2;PMS_P1;PMS_P2;Temp;Humidity;BMP_temperature;BMP_pressure;BME280_temperature;BME280_humidity;BME280_pressure;Samples;Min_cycle;Max_cycle;Signal;HPM_P1;HPM_P2
2022/04/20 00:01:08;;;;;;;2.10;1.70;;;10.80;99.10;;;;;;5039051;28;20024;-54
2022/04/20 00:03:33;;;;;;;2.70;1.60;;;10.70;99.90;;;;;;5041808;28;20025;-55
2022/04/20 00:05:59;;;;;;;4.10;1.80;;;10.50;99.90;;;;;;5043814;28;20380;-55
2022/04/20 00:08:24;;;;;;;3.17;2.03;;;10.30;99.90;;;;;;5046493;28;20036;-54
2022/04/20 00:10:50;;;;;;;11.52;1.60;;;10.20;99.90;;;;;;5037026;28;20035;-55
2022/04/20 00:13:15;;;;;;;2.75;1.58;;;10.00;99.90;;;;;;5018746;28;20022;-53
2022/04/20 00:15:41;;;;;;;2.88;1.83;;;9.90;99.90;;;;;;5038656;28;20542;-51
2022/04/20 00:18:07;;;;;;;3.53;1.83;;;9.80;99.90;;;;;;5044491;28;20032;-56
2022/04/20 00:20:32;;;;;;;3.20;1.42;;;9.80;99.90;;;;;;5032205;28;20388;-56
2022/04/20 00:22:58;;;;;;;3.75;1.63;;;9.70;99.90;;;;;;5046089;28;20025;-57
2022/04/20 00:25:23;;;;;;;3.97;2.00;;;9.60;99.90;;;;;;5033694;28;20064;-53
2022/04/20 00:27:49;;;;;;;8.40;2.33;;;9.50;99.90;;;;;;5040451;28;20025;-53
2022/04/20 00:30:14;;;;;;;2.78;2.20;;;9.40;99.90;;;;;;5036539;28;20505;-57
2022/04/20 00:32:40;;;;;;;3.35;1.75;;;9.30;99.90;;;;;;5043337;28;20085;-54
2022/04/20 00:35:07;;;;;;;7.80;2.20;;;9.20;99.90;;;;;;5039156;28;20033;-59
2022/04/20 00:37:36;;;;;;;5.75;2.05;;;9.20;99.90;;;;;;5041668;28;20449;-56
2022/04/20 00:40:05;;;;;;;2.95;1.75;;;9.20;99.90;;;;;;5034557;28;20028;-61
2022/04/20 00:42:31;;;;;;;7.57;2.15;;;9.20;99.90;;;;;;5037490;28;20453;-56
2022/04/20 00:44:57;;;;;;;4.10;2.00;;;9.30;99.90;;;;;;5037128;28;20064;-54
2022/04/20 00:47:24;;;;;;;3.00;1.67;;;9.30;99.90;;;;;;5040311;28;20037;-57
2022/04/20 00:49:50;;;;;;;6.88;2.00;;;9.30;99.90;;;;;;5037678;28;20112;-52
2022/04/20 00:52:16;;;;;;;3.30;1.98;;;9.30;99.90;;;;;;5040846;28;20705;-56
2022/04/20 00:54:42;;;;;;;3.42;1.85;;;9.30;99.90;;;;;;5036839;28;20108;-52
2022/04/20 00:57:07;;;;;;;5.63;2.50;;;9.30;99.90;;;;;;5039072;28;20916;-52
2022/04/20 00:59:36;;;;;;;8.80;2.22;;;9.20;99.90;;;;;;5039407;28;20543;-57
2022/04/20 01:02:02;;;;;;;4.45;1.70;;;9.30;99.90;;;;;;5033209;28;20372;-55
2022/04/20 01:04:29;;;;;;;2.90;2.22;;;9.20;99.90;;;;;;5035515;28;20036;-57
2022/04/20 01:06:59;;;;;;;4.15;2.15;;;9.20;99.90;;;;;;5033597;28;20057;-56
2022/04/20 01:09:24;;;;;;;5.53;2.22;;;9.10;99.90;;;;;;5036109;28;20460;-53
2022/04/20 01:11:51;;;;;;;4.65;2.30;;;9.10;99.90;;;;;;5041755;28;20040;-55
2022/04/20 01:14:17;;;;;;;7.32;2.42;;;8.90;99.90;;;;;;5036065;28;20051;-59
2022/04/20 01:16:43;;;;;;;5.90;2.00;;;8.70;99.90;;;;;;5029941;28;20044;-53
2022/04/20 01:19:08;;;;;;;3.53;2.25;;;8.60;99.90;;;;;;5033908;28;20479;-56
2022/04/20 01:21:34;;;;;;;4.20;2.28;;;8.40;99.90;;;;;;5038018;28;20025;-51
2022/04/20 01:23:59;;;;;;;3.42;2.22;;;8.30;99.90;;;;;;5042033;28;20029;-56
2022/04/20 01:26:27;;;;;;;7.07;2.40;;;8.20;99.90;;;;;;5042476;28;20096;-54
2022/04/20 01:28:54;;;;;;;5.85;2.30;;;8.10;99.90;;;;;;5033363;28;20025;-54
2022/04/20 01:31:19;;;;;;;3.97;2.30;;;8.00;99.90;;;;;;5032490;28;20045;-56
2022/04/20 01:33:45;;;;;;;6.68;3.00;;;7.90;99.90;;;;;;5032292;28;20024;-59
2022/04/20 01:36:11;;;;;;;5.88;3.13;;;7.90;99.90;;;;;;5049886;28;20124;-55
2022/04/20 01:38:38;;;;;;;7.18;3.35;;;7.80;99.90;;;;;;5035086;28;20034;-53
2022/04/20 01:41:04;;;;;;;8.13;3.58;;;7.70;99.90;;;;;;5041100;28;20021;-52
2022/04/20 01:43:30;;;;;;;16.85;3.38;;;7.70;99.90;;;;;;5037193;28;20041;-51
2022/04/20 01:45:55;;;;;;;6.50;3.55;;;7.70;99.90;;;;;;5037945;28;20025;-52
2022/04/20 01:48:21;;;;;;;6.40;3.00;;;7.60;99.90;;;;;;5037178;28;20060;-52
2022/04/20 01:53:30;;;;;;;7.07;3.15;;;7.60;99.90;;;;;;5035835;28;20227;-54
2022/04/20 01:55:56;;;;;;;5.65;2.88;;;7.50;99.90;;;;;;5037733;28;20542;-53
2022/04/20 01:58:22;;;;;;;4.82;3.20;;;7.40;99.90;;;;;;5038434;28;20536;-55
2022/04/20 02:00:48;;;;;;;7.18;3.20;;;7.30;99.90;;;;;;5018239;28;20029;-52
2022/04/20 02:03:13;;;;;;;5.18;3.08;;;7.30;99.90;;;;;;5042356;28;20060;-54
2022/04/20 02:05:40;;;;;;;3.90;2.72;;;7.30;99.90;;;;;;5036767;28;20065;-54
2022/04/20 02:08:06;;;;;;;8.40;3.50;;;7.30;99.90;;;;;;5038014;28;20029;-52
2022/04/20 02:10:31;;;;;;;4.13;2.67;;;7.20;99.90;;;;;;5040255;28;20034;-53
2022/04/20 02:12:57;;;;;;;7.30;3.88;;;7.30;99.90;;;;;;5036605;28;20029;-55
2022/04/20 02:15:22;;;;;;;4.18;3.10;;;7.20;99.90;;;;;;5037471;28;20123;-59
2022/04/20 02:17:48;;;;;;;8.93;2.85;;;7.30;99.90;;;;;;5035943;28;20407;-54
2022/04/20 02:20:14;;;;;;;6.93;3.35;;;7.30;99.90;;;;;;5044690;28;20033;-56
2022/04/20 02:22:39;;;;;;;6.00;2.80;;;7.30;99.90;;;;;;5034058;28;20033;-55
2022/04/20 02:25:06;;;;;;;12.43;2.85;;;7.30;99.90;;;;;;5043045;28;20025;-59
2022/04/20 02:27:32;;;;;;;6.68;2.60;;;7.30;99.90;;;;;;5032180;28;20037;-56
2022/04/20 02:29:57;;;;;;;10.00;2.88;;;7.20;99.90;;;;;;5042050;28;20025;-60
2022/04/20 02:32:23;;;;;;;6.00;2.33;;;7.10;99.90;;;;;;5037672;28;20702;-59
2022/04/20 02:34:48;;;;;;;6.68;2.95;;;7.10;99.90;;;;;;5040222;28;20483;-56
2022/04/20 02:37:14;;;;;;;7.43;2.55;;;7.10;99.90;;;;;;5029045;28;20053;-55
2022/04/20 02:39:41;;;;;;;5.30;2.88;;;7.10;99.90;;;;;;5038493;28;20032;-55
2022/04/20 02:42:08;;;;;;;5.30;2.50;;;7.10;99.90;;;;;;5036071;28;20021;-57
2022/04/20 02:44:34;;;;;;;10.30;2.85;;;7.00;99.90;;;;;;5038453;28;20029;-59
2022/04/20 02:46:59;;;;;;;8.05;2.47;;;7.10;99.90;;;;;;5035052;28;20075;-60
2022/04/20 02:49:25;;;;;;;3.13;2.45;;;7.00;99.90;;;;;;5039485;28;20522;-57
2022/04/20 02:51:51;;;;;;;7.45;2.67;;;7.00;99.90;;;;;;5037078;28;20400;-59
2022/04/20 02:54:16;;;;;;;6.35;2.63;;;7.00;99.90;;;;;;5039169;28;20033;-53
2022/04/20 02:56:42;;;;;;;7.13;3.03;;;6.80;99.90;;;;;;5038834;28;20218;-61
2022/04/20 02:59:07;;;;;;;6.30;2.80;;;6.70;99.90;;;;;;5035359;28;20025;-55
2022/04/20 03:01:33;;;;;;;6.18;2.40;;;6.60;99.90;;;;;;5035046;28;20024;-55
2022/04/20 03:03:59;;;;;;;8.57;2.90;;;6.50;99.90;;;;;;5040747;28;20052;-55
2022/04/20 03:06:25;;;;;;;2.67;2.25;;;6.50;99.90;;;;;;5037627;28;20021;-54
2022/04/20 03:08:51;;;;;;;4.93;3.13;;;6.50;99.90;;;;;;5035827;28;20484;-53
2022/04/20 03:11:16;;;;;;;7.55;3.20;;;6.50;99.90;;;;;;5035907;28;20039;-54
2022/04/20 03:13:42;;;;;;;4.60;2.88;;;6.40;99.90;;;;;;5036543;28;20029;-53
2022/04/20 03:16:07;;;;;;;5.57;2.80;;;6.40;99.90;;;;;;5040911;28;20103;-58
2022/04/20 03:18:33;;;;;;;11.07;2.50;;;6.40;99.90;;;;;;5034682;28;20034;-56
2022/04/20 03:21:00;;;;;;;5.63;3.05;;;6.30;99.90;;;;;;5036901;28;20021;-56
2022/04/20 03:23:26;;;;;;;5.30;2.15;;;6.30;99.90;;;;;;5037253;28;20083;-57
2022/04/20 03:25:52;;;;;;;5.70;3.28;;;6.30;99.90;;;;;;5036343;28;20399;-60
2022/04/20 03:28:17;;;;;;;13.10;3.13;;;6.30;99.90;;;;;;5037290;28;20026;-54
2022/04/20 03:30:43;;;;;;;4.72;2.92;;;6.30;99.90;;;;;;5030767;28;20490;-54
2022/04/20 03:33:10;;;;;;;7.38;3.13;;;6.20;99.90;;;;;;5036308;28;21002;-53
2022/04/20 03:35:38;;;;;;;5.88;2.83;;;6.20;99.90;;;;;;5036251;28;20138;-53
2022/04/20 03:38:05;;;;;;;5.18;2.58;;;6.10;99.90;;;;;;5034598;28;20022;-58
2022/04/20 03:40:30;;;;;;;3.70;2.60;;;6.10;99.90;;;;;;5038209;28;20033;-54
2022/04/20 03:42:56;;;;;;;7.15;2.83;;;6.10;99.90;;;;;;5040927;28;20032;-54
2022/04/20 03:45:21;;;;;;;7.38;2.70;;;6.10;99.90;;;;;;5047000;28;20025;-53
2022/04/20 03:47:47;;;;;;;4.20;2.50;;;6.10;99.90;;;;;;5041352;28;20018;-55
2022/04/20 03:50:12;;;;;;;5.95;2.92;;;6.10;99.90;;;;;;5042158;28;20025;-54
2022/04/20 03:52:38;;;;;;;9.90;2.85;;;6.00;99.90;;;;;;5030772;28;20039;-51
2022/04/20 03:55:05;;;;;;;5.40;2.75;;;6.00;99.90;;;;;;5042312;28;20065;-58
2022/04/20 03:57:30;;;;;;;4.70;2.88;;;6.00;99.90;;;;;;5036944;28;20593;-50
2022/04/20 03:59:56;;;;;;;9.10;3.33;;;6.10;99.90;;;;;;5034114;28;20110;-54
2022/04/20 04:02:21;;;;;;;4.55;2.83;;;6.10;99.90;;;;;;5036480;28;20026;-51
2022/04/20 04:04:47;;;;;;;8.43;3.03;;;6.20;99.90;;;;;;5039972;28;20021;-54
2022/04/20 04:07:13;;;;;;;4.55;2.75;;;6.10;99.90;;;;;;5031658;28;20033;-54
2022/04/20 04:09:38;;;;;;;6.53;2.92;;;6.10;99.90;;;;;;5041465;28;20025;-57
2022/04/20 04:12:08;;;;;;;4.07;2.40;;;6.00;99.90;;;;;;5036448;28;20549;-54
2022/04/20 04:14:38;;;;;;;6.30;3.58;;;5.90;99.90;;;;;;5036122;28;20033;-54
2022/04/20 04:17:03;;;;;;;5.18;3.10;;;5.80;99.90;;;;;;5038576;28;20040;-57
2022/04/20 04:19:29;;;;;;;11.70;3.58;;;5.70;99.90;;;;;;5039608;28;20029;-55
2022/04/20 04:21:56;;;;;;;7.32;3.47;;;5.70;99.90;;;;;;5037643;28;20016;-56
2022/04/20 04:24:36;;;;;;;6.93;3.25;;;5.60;99.90;;;;;;5042879;28;20454;-58
2022/04/20 04:27:07;;;;;;;7.22;3.10;;;5.60;99.90;;;;;;5039177;28;20079;-55
2022/04/20 04:29:33;;;;;;;4.40;2.45;;;5.60;99.90;;;;;;5040721;28;20116;-54
2022/04/20 04:31:59;;;;;;;6.85;3.05;;;5.60;99.90;;;;;;5038319;28;20588;-56
2022/04/20 04:34:26;;;;;;;8.30;3.40;;;5.70;99.90;;;;;;5034457;28;20036;-54
2022/04/20 04:36:51;;;;;;;7.22;3.22;;;5.70;99.90;;;;;;5039218;28;20055;-54
2022/04/20 04:39:21;;;;;;;4.95;2.97;;;5.70;99.90;;;;;;5040832;28;20037;-54
2022/04/20 04:41:47;;;;;;;9.30;3.33;;;5.70;99.90;;;;;;5040690;28;20028;-58
2022/04/20 04:44:13;;;;;;;5.22;2.55;;;5.70;99.90;;;;;;5040225;28;20565;-52
2022/04/20 04:49:22;;;;;;;4.65;2.88;;;5.70;99.90;;;;;;5041219;28;20095;-55
2022/04/20 04:51:49;;;;;;;6.10;2.90;;;5.80;99.90;;;;;;5039484;28;20028;-57
2022/04/20 04:54:15;;;;;;;8.13;3.25;;;5.80;99.90;;;;;;5039935;28;20033;-55
2022/04/20 04:56:40;;;;;;;6.70;2.88;;;5.80;99.90;;;;;;5039609;28;20048;-53
2022/04/20 04:59:06;;;;;;;7.43;2.58;;;5.80;99.90;;;;;;5035558;28;20026;-56
2022/04/20 05:01:31;;;;;;;6.25;3.08;;;5.80;99.90;;;;;;5042309;28;20076;-57
2022/04/20 05:03:57;;;;;;;14.05;3.45;;;5.70;99.90;;;;;;5036649;28;20108;-52
2022/04/20 05:06:22;;;;;;;8.55;3.83;;;5.70;99.90;;;;;;5033266;28;20100;-53
2022/04/20 05:08:48;;;;;;;8.98;3.58;;;5.70;99.90;;;;;;5037629;28;20034;-57
2022/04/20 05:11:14;;;;;;;8.88;3.75;;;5.70;99.90;;;;;;5035185;28;20040;-56
2022/04/20 05:13:39;;;;;;;9.85;3.72;;;5.70;99.90;;;;;;5035957;28;20037;-57
2022/04/20 05:16:05;;;;;;;10.63;3.83;;;5.70;99.90;;;;;;5048396;28;20057;-54
2022/04/20 05:18:30;;;;;;;6.88;3.67;;;5.80;99.90;;;;;;5034842;28;20041;-53
2022/04/20 05:20:56;;;;;;;12.18;3.60;;;5.90;99.90;;;;;;5041793;28;20383;-55
2022/04/20 05:23:21;;;;;;;8.07;3.63;;;5.90;99.90;;;;;;5034104;28;20112;-53
2022/04/20 05:25:48;;;;;;;10.32;4.22;;;6.00;99.90;;;;;;5043829;28;20029;-56
2022/04/20 05:28:13;;;;;;;8.05;3.85;;;6.00;99.90;;;;;;5035398;28;20471;-59
2022/04/20 05:30:39;;;;;;;6.82;3.22;;;6.10;99.90;;;;;;5036482;28;20051;-58
2022/04/20 05:33:04;;;;;;;8.40;4.78;;;6.20;99.90;;;;;;5041010;28;20029;-58
2022/04/20 05:35:30;;;;;;;7.25;3.67;;;6.30;99.90;;;;;;5039176;28;20057;-55
2022/04/20 05:43:24;;;;;;;8.82;3.45;;;6.50;99.90;;;;;;5039576;28;20044;-51
2022/04/20 05:45:50;;;;;;;7.72;3.95;;;6.60;99.90;;;;;;5042208;28;20029;-54
2022/04/20 05:48:16;;;;;;;7.13;3.50;;;6.70;99.90;;;;;;5025474;28;20021;-58
2022/04/20 05:50:43;;;;;;;5.28;3.58;;;6.80;99.90;;;;;;5038441;28;20406;-55
2022/04/20 05:53:09;;;;;;;6.03;3.45;;;6.90;99.90;;;;;;5043475;28;20024;-55
2022/04/20 05:55:34;;;;;;;5.70;3.50;;;7.00;99.90;;;;;;5040451;28;20502;-59
2022/04/20 05:58:00;;;;;;;7.15;3.35;;;7.10;99.90;;;;;;5042587;28;20038;-58
2022/04/20 06:00:25;;;;;;;6.55;3.50;;;7.10;99.90;;;;;;5031922;28;20029;-56
2022/04/20 06:02:52;;;;;;;8.27;3.08;;;7.30;99.90;;;;;;5031265;28;20109;-53
2022/04/20 06:05:18;;;;;;;7.43;3.75;;;7.40;99.90;;;;;;5040364;28;20053;-54
2022/04/20 06:07:43;;;;;;;12.05;3.00;;;7.50;99.90;;;;;;5038679;28;20147;-56
2022/04/20 06:10:09;;;;;;;4.78;3.28;;;7.60;99.90;;;;;;5038965;28;20395;-56
2022/04/20 06:12:34;;;;;;;15.00;3.13;;;7.70;99.90;;;;;;5031433;28;20029;-55
2022/04/20 06:15:00;;;;;;;5.25;3.25;;;7.80;99.90;;;;;;5029073;28;20034;-55
2022/04/20 06:17:25;;;;;;;6.03;3.25;;;7.90;99.90;;;;;;5042840;28;20462;-57
2022/04/20 06:19:51;;;;;;;10.15;3.38;;;8.00;99.90;;;;;;5040795;28;20061;-61
2022/04/20 06:22:16;;;;;;;8.85;3.28;;;8.10;99.90;;;;;;5041051;28;20043;-54
2022/04/20 06:24:42;;;;;;;10.40;2.65;;;8.20;99.90;;;;;;5017199;28;20025;-53
2022/04/20 06:27:08;;;;;;;4.63;3.05;;;8.30;99.90;;;;;;5034633;28;20034;-59
2022/04/20 06:29:34;;;;;;;8.32;2.80;;;8.40;99.90;;;;;;5038965;28;20033;-56
2022/04/20 06:32:01;;;;;;;5.03;2.80;;;8.50;99.90;;;;;;5040100;28;20029;-58
2022/04/20 06:34:26;;;;;;;8.25;2.85;;;8.60;99.90;;;;;;5037488;28;20049;-58
2022/04/20 06:36:52;;;;;;;3.47;2.42;;;8.70;99.90;;;;;;5038346;28;20060;-57
2022/04/20 06:39:17;;;;;;;6.30;3.05;;;8.80;99.90;;;;;;5032382;28;20229;-58
2022/04/20 06:41:43;;;;;;;6.95;2.47;;;8.90;99.90;;;;;;5041514;28;20300;-56
2022/04/20 06:44:08;;;;;;;9.48;4.13;;;9.00;99.90;;;;;;5034855;28;20044;-56
2022/04/20 06:46:34;;;;;;;25.92;3.38;;;9.10;99.90;;;;;;5030208;28;20029;-56
2022/04/20 06:49:00;;;;;;;4.63;2.67;;;9.30;99.90;;;;;;5033284;28;20048;-55
2022/04/20 06:51:26;;;;;;;3.53;2.33;;;9.30;99.90;;;;;;5035403;28;20064;-59
2022/04/20 06:59:20;;;;;;;7.28;2.30;;;9.70;99.90;;;;;;5036135;28;20083;-56
2022/04/20 07:01:46;;;;;;;8.30;2.90;;;9.90;99.90;;;;;;5030035;28;20021;-57
2022/04/20 07:04:12;;;;;;;4.75;2.08;;;10.00;99.90;;;;;;5034871;28;20598;-57
2022/04/20 07:06:37;;;;;;;9.27;1.95;;;10.10;99.90;;;;;;5041029;28;20049;-52
2022/04/20 07:09:03;;;;;;;4.72;1.90;;;10.20;99.90;;;;;;5030613;28;20044;-52
2022/04/20 07:11:28;;;;;;;7.22;2.58;;;10.30;99.90;;;;;;5035847;28;20112;-52
2022/04/20 07:13:57;;;;;;;10.50;2.33;;;10.50;99.90;;;;;;5033190;28;20029;-55
2022/04/20 07:16:23;;;;;;;5.38;2.10;;;10.60;99.90;;;;;;5047338;28;20037;-53
2022/04/20 07:18:49;;;;;;;4.32;2.20;;;10.60;99.90;;;;;;5038996;28;20491;-53
2022/04/20 07:21:14;;;;;;;8.85;2.20;;;10.60;99.90;;;;;;5039581;28;20037;-57
2022/04/20 07:23:40;;;;;;;4.35;2.45;;;10.70;99.90;;;;;;5035788;28;20060;-56
2022/04/20 07:26:05;;;;;;;10.13;2.50;;;10.80;99.90;;;;;;5032403;28;20121;-56
2022/04/20 07:28:31;;;;;;;3.45;2.22;;;11.00;99.90;;;;;;5029598;28;20028;-58
2022/04/20 07:30:57;;;;;;;3.00;1.80;;;11.00;99.90;;;;;;5030906;28;20028;-55
2022/04/20 07:33:24;;;;;;;3.80;2.28;;;11.10;99.90;;;;;;5040893;28;20608;-57
2022/04/20 07:35:50;;;;;;;5.82;2.17;;;11.20;99.90;;;;;;5037134;28;20025;-57
2022/04/20 07:38:15;;;;;;;4.22;2.08;;;11.30;99.90;;;;;;5042381;28;20100;-55
2022/04/20 07:40:41;;;;;;;6.05;2.33;;;11.40;99.90;;;;;;5035884;28;20017;-55
2022/04/20 07:43:07;;;;;;;3.42;2.15;;;11.40;99.90;;;;;;5029517;28;20040;-53
2022/04/20 07:45:33;;;;;;;4.28;1.90;;;11.50;99.90;;;;;;5026431;28;20097;-56
2022/04/20 07:48:01;;;;;;;3.25;1.92;;;11.60;99.90;;;;;;5011370;28;20100;-53
2022/04/20 07:50:29;;;;;;;6.03;1.88;;;11.70;99.90;;;;;;5029988;28;20025;-54
2022/04/20 07:53:04;;;;;;;7.18;1.90;;;11.80;99.90;;;;;;5028624;28;20033;-56
2022/04/20 07:55:32;;;;;;;4.63;1.70;;;12.00;99.90;;;;;;5014483;28;20522;-58
2022/04/20 07:58:00;;;;;;;10.60;2.28;;;12.10;99.90;;;;;;5010855;28;20466;-57
2022/04/20 08:00:27;;;;;;;4.47;1.88;;;12.20;99.90;;;;;;5033442;28;20051;-56
2022/04/20 08:03:14;;;;;;;3.83;1.50;;;12.30;99.90;;;;;;5029681;28;20401;-57
2022/04/20 08:05:41;;;;;;;7.53;2.50;;;12.30;99.90;;;;;;5034017;28;20546;-57
2022/04/20 08:08:07;;;;;;;2.92;1.58;;;12.40;99.90;;;;;;5044954;28;20040;-57
2022/04/20 08:10:33;;;;;;;4.88;2.00;;;12.50;99.90;;;;;;5033530;28;20025;-56
2022/04/20 08:12:58;;;;;;;9.32;2.00;;;12.50;99.90;;;;;;5035119;28;20025;-59
2022/04/20 08:15:24;;;;;;;5.43;2.35;;;12.60;99.90;;;;;;5040216;28;20033;-54
2022/04/20 08:17:50;;;;;;;4.18;1.70;;;12.60;99.90;;;;;;5044316;28;20025;-57
2022/04/20 08:20:15;;;;;;;3.85;1.98;;;12.70;99.90;;;;;;5035506;28;20317;-57
2022/04/20 08:22:43;;;;;;;4.45;2.03;;;12.70;99.90;;;;;;5041555;28;20544;-54
2022/04/20 08:25:10;;;;;;;8.80;2.33;;;12.80;99.90;;;;;;5033329;28;20467;-53
2022/04/20 08:27:36;;;;;;;7.80;1.98;;;12.90;99.90;;;;;;5044555;28;20021;-56
2022/04/20 08:30:04;;;;;;;3.03;1.73;;;13.00;99.90;;;;;;5038244;28;20487;-56
2022/04/20 08:32:30;;;;;;;5.03;2.45;;;13.10;99.90;;;;;;5042268;28;20045;-53
2022/04/20 08:34:55;;;;;;;3.95;2.00;;;13.10;99.90;;;;;;5037109;28;20027;-54
2022/04/20 08:37:21;;;;;;;5.95;1.75;;;13.30;99.90;;;;;;5038149;28;20033;-57
2022/04/20 08:39:47;;;;;;;3.83;1.92;;;13.40;99.90;;;;;;5033257;28;20108;-58
2022/04/20 08:42:16;;;;;;;7.93;1.90;;;13.40;99.90;;;;;;5039249;28;20021;-60
2022/04/20 08:44:47;;;;;;;5.38;2.22;;;13.60;99.90;;;;;;5036184;28;20033;-52
2022/04/20 08:47:21;;;;;;;4.30;1.85;;;13.60;99.90;;;;;;5036844;28;20124;-56
2022/04/20 08:49:51;;;;;;;;;;;13.70;99.90;;;;;;5033015;28;20022;-54
2022/04/20 08:55:01;;;;;;;;;;;13.80;99.90;;;;;;5033140;28;20014;-51
2022/04/20 08:57:29;;;;;;;;;;;14.00;99.90;;;;;;5034847;28;20378;-59
2022/04/20 08:59:57;;;;;;;;;;;14.10;99.90;;;;;;5034524;28;19975;-54
2022/04/20 09:02:25;;;;;;;;;;;14.10;99.90;;;;;;5031756;28;20018;-56
2022/04/20 09:04:51;;;;;;;;;;;14.20;99.90;;;;;;5038855;28;19916;-52
2022/04/20 09:07:18;;;;;;;;;;;14.30;99.90;;;;;;5029762;28;20306;-58
2022/04/20 09:09:43;;;;;;;;;;;14.40;99.90;;;;;;5035342;28;20004;-59
2022/04/20 09:12:19;;;;;;;;;;;14.40;99.90;;;;;;5032901;28;20525;-56
2022/04/20 09:14:48;;;;;;;;;;;14.50;99.90;;;;;;5033225;28;19912;-53
2022/04/20 09:17:15;;;;;;;;;;;14.70;99.90;;;;;;5030778;28;20514;-56
2022/04/20 09:19:41;;;;;;;;;;;14.70;99.90;;;;;;5032131;28;19924;-56
2022/04/20 09:22:23;;;;;;;;;;;14.70;99.90;;;;;;5031242;28;19916;-59
2022/04/20 09:24:59;;;;;;;;;;;14.90;99.90;;;;;;5032836;28;19917;-58
2022/04/20 09:27:27;;;;;;;;;;;15.00;99.90;;;;;;5031270;28;19924;-60
2022/04/20 09:29:57;;;;;;;;;;;15.20;99.90;;;;;;5034955;28;20371;-58
2022/04/20 09:32:29;;;;;;;;;;;15.30;98.50;;;;;;5030469;28;20479;-58
2022/04/20 09:34:57;;;;;;;;;;;15.30;99.20;;;;;;5032379;28;19924;-60
2022/04/20 09:37:22;;;;;;;;;;;15.40;99.90;;;;;;5028679;28;19909;-53
2022/04/20 09:39:50;;;;;;;;;;;15.50;98.40;;;;;;5029134;28;20407;-58
2022/04/20 09:42:16;;;;;;;;;;;15.60;98.40;;;;;;5031449;28;20454;-59
2022/04/20 09:44:54;;;;;;;;;;;15.70;98.40;;;;;;5028849;28;19968;-60
2022/04/20 09:50:05;;;;;;;;;;;16.00;96.80;;;;;;5032763;28;19916;-55
2022/04/20 09:52:37;;;;;;;;;;;16.20;98.70;;;;;;5037650;28;19909;-58
2022/04/20 09:55:05;;;;;;;;;;;16.40;98.40;;;;;;5033472;28;20370;-60
2022/04/20 09:57:31;;;;;;;;;;;16.60;97.20;;;;;;5038696;28;19991;-61
2022/04/20 10:00:01;;;;;;;;;;;16.60;96.30;;;;;;5032686;28;20019;-58
2022/04/20 10:02:28;;;;;;;;;;;16.80;95.90;;;;;;5034182;28;20334;-56
2022/04/20 10:04:55;;;;;;;;;;;16.90;96.30;;;;;;5033930;28;19905;-58
2022/04/20 10:07:20;;;;;;;;;;;17.00;94.70;;;;;;5036386;28;19909;-58
2022/04/20 10:09:46;;;;;;;;;;;17.10;94.70;;;;;;5035962;28;19917;-58
2022/04/20 10:12:12;;;;;;;;;;;17.30;94.50;;;;;;5034375;28;20302;-53
2022/04/20 10:17:25;;;;;;;;;;;17.20;93.70;;;;;;5031608;28;20569;-55
2022/04/20 10:19:53;;;;;;;;;;;17.40;94.00;;;;;;5032395;28;19920;-56
2022/04/20 10:22:20;;;;;;;;;;;17.60;96.50;;;;;;5032585;28;19974;-59
2022/04/20 10:24:49;;;;;;;;;;;18.00;96.20;;;;;;5027667;28;19909;-59
2022/04/20 10:27:37;;;;;;;;;;;17.80;93.50;;;;;;5035892;28;20011;-60
2022/04/20 10:30:09;;;;;;;;;;;17.80;93.50;;;;;;5035682;28;19925;-56
2022/04/20 10:32:47;;;;;;;;;;;17.90;93.40;;;;;;5033153;28;19916;-55
2022/04/20 10:35:13;;;;;;;;;;;18.00;91.60;;;;;;5028421;28;20440;-57
2022/04/20 10:37:40;;;;;;;;;;;18.10;91.30;;;;;;5034834;28;19911;-57
2022/04/20 10:40:18;;;;;;;;;;;18.20;91.80;;;;;;5033067;28;19919;-61
2022/04/20 10:42:48;;;;;;;;;;;18.20;92.00;;;;;;5031703;28;20310;-60
2022/04/20 10:45:16;;;;;;;;;;;17.90;93.80;;;;;;5035856;28;19915;-57
2022/04/20 10:47:42;;;;;;;;;;;17.90;91.70;;;;;;5032337;28;19909;-61
2022/04/20 10:50:27;;;;;;;;;;;18.10;92.00;;;;;;5032058;28;19913;-57
2022/04/20 10:53:04;;;;;;;;;;;18.40;91.00;;;;;;5033237;28;19905;-58
2022/04/20 10:55:30;;;;;;;;;;;18.80;91.40;;;;;;5032385;28;19904;-59
2022/04/20 10:57:58;;;;;;;;;;;19.10;91.30;;;;;;5032027;28;20290;-61
2022/04/20 11:00:25;;;;;;;;;;;19.10;91.70;;;;;;5035681;28;19942;-60
2022/04/20 11:02:51;;;;;;;;;;;19.20;88.20;;;;;;5033602;28;19940;-58
2022/04/20 11:05:21;;;;;;;;;;;19.20;90.60;;;;;;5037787;28;19916;-56
2022/04/20 11:08:05;;;;;;;;;;;19.00;91.80;;;;;;5032981;28;20317;-50
2022/04/20 11:10:31;;;;;;;;;;;19.00;92.40;;;;;;5031416;28;19912;-58
2022/04/20 11:19:03;;;;;;;;;;;19.20;86.10;;;;;;5033493;28;19916;-56
2022/04/20 11:21:29;;;;;;;;;;;19.30;88.30;;;;;;5031640;28;19909;-56
2022/04/20 11:23:57;;;;;;;;;;;19.30;91.20;;;;;;5034558;28;19986;-56
2022/04/20 11:26:30;;;;;;;;;;;19.30;83.50;;;;;;5028318;28;19912;-57
2022/04/20 11:28:56;;;;;;;;;;;19.20;84.70;;;;;;5036007;28;19909;-60
2022/04/20 11:31:22;;;;;;;;;;;19.20;83.10;;;;;;5034983;28;19999;-54
2022/04/20 11:33:49;;;;;;;;;;;19.30;84.60;;;;;;5038054;28;19952;-58
2022/04/20 11:36:15;;;;;;;;;;;19.20;91.10;;;;;;5037297;28;19959;-61
2022/04/20 11:38:44;;;;;;;;;;;19.40;90.80;;;;;;5035328;28;19909;-59
2022/04/20 11:41:10;;;;;;;;;;;19.50;88.80;;;;;;5034756;28;19905;-61
2022/04/20 11:43:36;;;;;;;;;;;19.50;85.80;;;;;;5055101;22;19931;-63
2022/04/20 11:46:02;;;;;;;;;;;19.70;85.20;;;;;;5042291;28;19994;-62
2022/04/20 11:48:28;;;;;;;;;;;20.20;83.30;;;;;;5042425;28;20354;-64
2022/04/20 11:50:57;;;;;;;;;;;20.50;79.50;;;;;;5043803;28;19908;-59
2022/04/20 11:53:33;;;;;;;;;;;20.10;78.40;;;;;;5044684;28;19921;-63
2022/04/20 11:55:59;;;;;;;;;;;20.00;79.00;;;;;;5030792;28;20329;-62
2022/04/20 11:58:25;;;;;;;;;;;19.90;87.10;;;;;;5031837;28;19912;-60
2022/04/20 12:01:04;;;;;;;;;;;19.90;83.00;;;;;;5028770;28;19935;-65
2022/04/20 12:03:32;;;;;;;;;;;20.10;84.10;;;;;;5031271;28;19908;-64
2022/04/20 12:06:10;;;;;;;;;;;20.50;83.60;;;;;;5033450;28;20396;-62
2022/04/20 12:08:36;;;;;;;;;;;20.40;83.10;;;;;;5025282;28;19931;-63
2022/04/20 12:11:03;;;;;;;;;;;20.50;83.90;;;;;;5031711;28;19913;-63
2022/04/20 12:13:29;;;;;;;;;;;20.70;79.30;;;;;;5030399;28;19909;-62
2022/04/20 12:16:00;;;;;;;;;;;20.80;80.10;;;;;;5031602;28;20351;-61
2022/04/20 12:18:26;;;;;;;;;;;20.70;80.00;;;;;;5031360;28;19935;-63
2022/04/20 12:20:52;;;;;;;;;;;21.10;80.90;;;;;;5028931;28;19917;-64
2022/04/20 12:23:17;;;;;;;;;;;21.10;82.60;;;;;;5027016;28;19925;-62
2022/04/20 12:25:49;;;;;;;;;;;20.70;80.40;;;;;;5030392;28;19912;-61
2022/04/20 12:31:00;;;;;;;;;;;21.30;84.20;;;;;;5031481;28;20266;-60
2022/04/20 12:33:26;;;;;;;;;;;21.70;81.30;;;;;;5031683;28;19900;-61
2022/04/20 12:35:58;;;;;;;;;;;21.60;81.00;;;;;;5030995;28;19971;-61
2022/04/20 12:38:23;;;;;;;;;;;21.90;80.90;;;;;;5030741;28;19908;-63
2022/04/20 12:40:49;;;;;;;;;;;21.70;78.80;;;;;;5029576;28;20260;-62
2022/04/20 12:43:14;;;;;;;;;;;21.60;79.00;;;;;;5031060;28;19936;-62
2022/04/20 12:45:40;;;;;;;;;;;21.60;79.20;;;;;;5031187;28;19963;-64
2022/04/20 12:48:06;;;;;;;;;;;22.00;74.30;;;;;;5031725;28;19913;-65
2022/04/20 12:50:36;;;;;;;;;;;21.60;78.20;;;;;;5030518;28;20403;-62
2022/04/20 12:53:02;;;;;;;;;;;21.80;74.30;;;;;;5029698;28;19916;-63
2022/04/20 12:55:35;;;;;;;;;;;21.90;72.50;;;;;;5030403;28;21754;-63
2022/04/20 13:03:30;;;;;;;;;;;22.50;73.60;;;;;;5032450;28;19965;-60
2022/04/20 13:05:56;;;;;;;;;;;22.70;72.40;;;;;;5033488;28;19911;-61
2022/04/20 13:08:21;;;;;;;;;;;22.30;78.90;;;;;;5035056;28;19987;-62
2022/04/20 13:10:49;;;;;;;;;;;21.70;81.60;;;;;;5035530;28;19945;-62
2022/04/20 13:13:15;;;;;;;;;;;21.50;75.10;;;;;;5031317;28;19913;-60
2022/04/20 13:15:40;;;;;;;;;;;22.00;81.80;;;;;;5031798;28;19901;-66
2022/04/20 13:18:06;;;;;;;;;;;21.40;73.00;;;;;;5031539;28;19901;-64
2022/04/20 13:20:32;;;;;;;;;;;22.20;72.80;;;;;;5029223;28;19908;-63
2022/04/20 13:22:57;;;;;;;;;;;22.50;72.60;;;;;;5029938;28;19912;-58
2022/04/20 13:28:08;;;;;;;;;;;23.10;70.90;;;;;;5029353;28;19982;-62
2022/04/20 13:30:38;;;;;;;;;;;22.60;75.80;;;;;;5029642;28;19916;-59
2022/04/20 13:33:04;;;;;;;;;;;22.80;73.20;;;;;;5027303;28;19909;-63
2022/04/20 13:35:30;;;;;;;;;;;23.10;71.00;;;;;;5031867;28;19951;-62
2022/04/20 13:37:56;;;;;;;;;;;23.10;76.10;;;;;;5030310;28;19905;-64
2022/04/20 13:40:22;;;;;;;;;;;22.70;76.00;;;;;;5031913;28;19905;-63
2022/04/20 13:42:47;;;;;;;;;;;22.80;75.00;;;;;;5029300;28;19948;-63
2022/04/20 13:45:13;;;;;;;;;;;22.70;76.50;;;;;;5030490;28;19909;-63
2022/04/20 13:47:38;;;;;;;;;;;22.60;75.70;;;;;;5032469;28;20343;-59
2022/04/20 13:50:06;;;;;;;;;;;22.80;76.20;;;;;;5027962;28;20278;-60
2022/04/20 13:52:33;;;;;;;;;;;22.20;81.90;;;;;;5027209;28;20418;-60
2022/04/20 13:54:58;;;;;;;;;;;22.20;79.00;;;;;;5031125;28;19930;-64
2022/04/20 13:57:24;;;;;;;;;;;22.40;78.70;;;;;;5032438;28;19984;-62
2022/04/20 13:59:50;;;;;;;;;;;22.10;75.60;;;;;;5039959;28;19909;-66
2022/04/20 14:02:16;;;;;;;;;;;22.50;76.90;;;;;;5038828;28;19905;-60